Time;durP1;ratioP1;P1;durP2;ratioP2;P2;SDS_P1;SDS_P2;PMS_P1;PMS_P2;Temp;Humidity;BMP_temperature;BMP_pressure;BME280_temperature;BME280_humidity;BME280_pressure;Samples;Min_cycle;Max_cycle;Signal;HPM_P1;HPM_P2
2023/07/23 00:02:01;;;;;;;13.20;2.25;;;20.30;84.00;;;;;;5096791;27;46495;-74
2023/07/23 00:04:27;;;;;;;9.02;2.92;;;20.30;83.00;;;;;;5106965;27;45088;-75
2023/07/23 00:06:54;;;;;;;6.95;2.47;;;20.30;83.10;;;;;;5105242;27;45146;-74
2023/07/23 00:09:22;;;;;;;7.00;2.50;;;20.30;82.10;;;;;;5098575;27;45048;-75
2023/07/23 00:11:49;;;;;;;9.52;2.50;;;20.30;81.80;;;;;;5093043;27;45299;-74
2023/07/23 00:14:16;;;;;;;24.25;10.45;;;20.30;82.50;;;;;;5100119;27;45195;-74
2023/07/23 00:16:43;;;;;;;10.30;2.95;;;20.20;82.00;;;;;;5106206;27;45283;-75
2023/07/23 00:19:13;;;;;;;8.80;2.60;;;20.20;82.20;;;;;;5092886;27;45168;-76
2023/07/23 00:21:39;;;;;;;5.10;2.10;;;20.20;82.30;;;;;;5108019;27;46588;-74
2023/07/23 00:24:07;;;;;;;5.07;2.00;;;20.20;82.90;;;;;;5106019;27;45290;-74
2023/07/23 00:26:35;;;;;;;6.65;2.38;;;20.10;82.80;;;;;;5105696;27;45158;-75
2023/07/23 00:29:02;;;;;;;7.45;2.15;;;20.10;82.40;;;;;;5091283;27;45192;-74
2023/07/23 00:31:29;;;;;;;9.45;2.33;;;20.10;82.60;;;;;;5104834;27;46389;-74
2023/07/23 00:33:56;;;;;;;12.02;2.63;;;20.10;82.20;;;;;;5095205;27;45522;-74
2023/07/23 00:36:23;;;;;;;8.90;2.15;;;20.10;81.80;;;;;;5098070;27;45199;-74
2023/07/23 00:38:50;;;;;;;3.90;2.17;;;20.10;82.10;;;;;;5104407;27;45085;-74
2023/07/23 00:41:17;;;;;;;11.15;2.47;;;20.10;82.50;;;;;;5105571;27;47249;-74
2023/07/23 00:43:45;;;;;;;6.15;2.60;;;20.10;81.80;;;;;;5105853;27;45120;-74
2023/07/23 00:46:13;;;;;;;5.40;2.80;;;20.10;83.10;;;;;;5105867;27;45098;-74
2023/07/23 00:48:39;;;;;;;7.55;2.45;;;20.10;86.10;;;;;;5106162;27;45074;-74
2023/07/23 00:51:06;;;;;;;7.57;2.35;;;20.10;86.30;;;;;;5105434;27;45474;-74
2023/07/23 00:53:33;;;;;;;6.60;2.42;;;20.20;87.30;;;;;;5106084;27;45099;-74
2023/07/23 00:56:00;;;;;;;4.65;2.50;;;20.10;86.60;;;;;;5105660;27;45431;-74
2023/07/23 00:58:27;;;;;;;5.43;2.33;;;20.10;84.60;;;;;;5105747;27;45317;-75
2023/07/23 01:00:56;;;;;;;6.32;2.63;;;20.10;84.70;;;;;;5101648;27;45187;-74
2023/07/23 01:03:23;;;;;;;7.90;2.85;;;20.00;84.90;;;;;;5093564;27;45702;-74
2023/07/23 01:05:51;;;;;;;4.47;2.75;;;20.10;84.20;;;;;;5093833;27;45158;-74
2023/07/23 01:08:20;;;;;;;4.15;2.58;;;20.00;83.00;;;;;;5092859;27;45288;-74
2023/07/23 01:10:48;;;;;;;10.98;3.30;;;20.00;83.10;;;;;;5116791;27;46251;-74
2023/07/23 01:13:15;;;;;;;5.72;3.20;;;20.00;83.20;;;;;;5102691;27;45192;-74
2023/07/23 01:15:42;;;;;;;6.32;3.08;;;20.00;82.70;;;;;;5105705;27;45130;-75
2023/07/23 01:18:11;;;;;;;12.40;3.83;;;20.00;83.00;;;;;;5099546;27;45276;-74
2023/07/23 01:20:38;;;;;;;7.68;3.42;;;20.10;81.80;;;;;;5108957;27;46196;-74
2023/07/23 01:23:06;;;;;;;6.38;3.30;;;20.00;81.30;;;;;;5100637;27;45026;-74
2023/07/23 01:25:33;;;;;;;10.95;3.70;;;20.10;81.70;;;;;;5109128;27;45100;-74
2023/07/23 01:28:00;;;;;;;7.95;3.30;;;20.10;82.30;;;;;;5109783;27;45108;-74
2023/07/23 01:30:27;;;;;;;9.07;3.83;;;20.10;82.00;;;;;;5108675;27;46392;-74
2023/07/23 01:32:54;;;;;;;8.90;3.42;;;20.10;80.10;;;;;;5109055;27;45101;-74
2023/07/23 01:35:21;;;;;;;8.63;3.60;;;20.10;80.10;;;;;;5109081;27;45198;-75
2023/07/23 01:37:48;;;;;;;7.43;3.53;;;20.10;79.70;;;;;;5109156;27;45322;-74
2023/07/23 01:40:17;;;;;;;4.72;2.78;;;20.00;79.70;;;;;;5108899;27;46402;-74
2023/07/23 01:42:44;;;;;;;8.35;3.38;;;20.10;80.60;;;;;;5108811;27;45279;-74
2023/07/23 01:45:11;;;;;;;6.78;3.55;;;20.10;78.40;;;;;;5108769;27;45427;-74
2023/07/23 01:47:38;;;;;;;8.02;3.45;;;20.10;78.80;;;;;;5103054;27;45476;-74
2023/07/23 01:50:06;;;;;;;6.40;3.72;;;20.10;79.80;;;;;;5108386;27;47188;-74
2023/07/23 01:52:34;;;;;;;10.43;3.92;;;20.10;78.60;;;;;;5108544;27;45203;-74
2023/07/23 01:55:01;;;;;;;10.57;3.80;;;20.10;78.30;;;;;;5101708;27;45293;-74
2023/07/23 01:57:29;;;;;;;7.32;3.35;;;20.00;78.30;;;;;;5108220;27;45270;-75
2023/07/23 01:59:55;;;;;;;9.10;3.97;;;20.00;78.20;;;;;;5108291;27;46563;-75
2023/07/23 02:02:22;;;;;;;6.63;2.50;;;20.10;78.00;;;;;;5103845;27;45124;-74
2023/07/23 02:04:49;;;;;;;8.00;4.20;;;20.10;78.40;;;;;;5111648;27;45132;-74
2023/07/23 02:07:16;;;;;;;6.78;3.22;;;20.10;78.40;;;;;;5113552;27;45240;-74
2023/07/23 02:09:42;;;;;;;6.28;3.45;;;20.00;78.30;;;;;;5105884;27;46518;-74
2023/07/23 02:12:09;;;;;;;9.52;4.10;;;20.00;78.30;;;;;;5102683;27;45229;-74
2023/07/23 02:14:38;;;;;;;10.25;3.97;;;20.00;77.80;;;;;;5118307;27;45154;-74
2023/07/23 02:17:05;;;;;;;6.22;3.22;;;20.00;78.20;;;;;;5111751;27;45099;-74
2023/07/23 02:19:31;;;;;;;10.35;3.70;;;20.00;77.20;;;;;;5109557;27;47666;-74
2023/07/23 02:21:58;;;;;;;6.03;3.38;;;20.00;77.50;;;;;;5091575;27;45578;-75
2023/07/23 02:24:25;;;;;;;7.15;3.05;;;20.00;77.30;;;;;;5106827;27;45195;-74
2023/07/23 02:26:52;;;;;;;5.15;3.40;;;20.00;77.20;;;;;;5099657;27;45153;-74
2023/07/23 02:29:19;;;;;;;5.82;3.05;;;20.00;77.50;;;;;;5106221;27;47469;-74
2023/07/23 02:31:47;;;;;;;8.27;3.20;;;20.00;77.70;;;;;;5107693;27;45175;-74
2023/07/23 02:34:14;;;;;;;9.00;3.53;;;20.00;77.80;;;;;;5108255;27;45328;-74
2023/07/23 02:36:41;;;;;;;6.75;3.72;;;20.00;77.40;;;;;;5107945;27;45296;-74
2023/07/23 02:39:08;;;;;;;8.38;3.38;;;20.00;77.50;;;;;;5107722;27;46054;-74
2023/07/23 02:41:35;;;;;;;6.32;3.50;;;20.00;78.30;;;;;;5091135;27;45294;-74
2023/07/23 02:44:02;;;;;;;7.85;3.15;;;20.00;77.00;;;;;;5108140;27;45247;-74
2023/07/23 02:46:29;;;;;;;7.57;3.63;;;19.90;77.50;;;;;;5107511;27;45402;-74
2023/07/23 02:48:57;;;;;;;4.03;2.70;;;20.00;76.80;;;;;;5103166;27;46593;-75
2023/07/23 02:51:24;;;;;;;3.97;2.90;;;19.90;77.40;;;;;;5105281;27;45135;-74
2023/07/23 02:53:51;;;;;;;4.75;3.00;;;19.90;77.70;;;;;;5107164;27;45060;-74
2023/07/23 02:56:18;;;;;;;6.57;2.90;;;19.90;77.00;;;;;;5106861;27;45319;-74
2023/07/23 02:58:44;;;;;;;5.60;2.67;;;19.90;77.40;;;;;;5107838;27;45375;-74
2023/07/23 03:01:11;;;;;;;6.00;2.70;;;19.90;76.70;;;;;;5107591;27;45165;-74
2023/07/23 03:03:38;;;;;;;4.40;2.72;;;19.90;77.20;;;;;;5105713;27;45233;-74
2023/07/23 03:06:08;;;;;;;7.78;2.90;;;19.90;77.20;;;;;;5101150;27;45434;-74
2023/07/23 03:08:35;;;;;;;6.13;3.35;;;19.90;77.00;;;;;;5098808;27;46241;-74
2023/07/23 03:11:02;;;;;;;6.57;3.38;;;19.90;76.90;;;;;;5102052;27;45414;-74
2023/07/23 03:13:29;;;;;;;6.63;3.20;;;19.90;77.00;;;;;;5112774;27;45078;-74
2023/07/23 03:15:56;;;;;;;7.97;3.63;;;19.90;77.50;;;;;;5103739;27;45207;-74
2023/07/23 03:18:22;;;;;;;7.95;3.30;;;19.90;77.50;;;;;;5103090;27;45136;-74
2023/07/23 03:20:49;;;;;;;7.22;3.15;;;19.80;78.20;;;;;;5106831;27;45836;-74
2023/07/23 03:23:17;;;;;;;6.90;3.25;;;19.90;77.90;;;;;;5107245;27;45194;-74
2023/07/23 03:25:44;;;;;;;6.13;3.25;;;19.90;78.10;;;;;;5098766;27;45066;-75
2023/07/23 03:28:11;;;;;;;5.25;3.08;;;19.90;76.90;;;;;;5107115;27;47278;-74
2023/07/23 03:30:38;;;;;;;5.43;2.92;;;19.90;76.60;;;;;;5106638;27;45289;-74
2023/07/23 03:33:05;;;;;;;5.93;3.00;;;19.90;76.80;;;;;;5107214;27;45157;-74
2023/07/23 03:35:31;;;;;;;3.45;2.63;;;19.90;76.60;;;;;;5106889;27;45196;-74
2023/07/23 03:37:58;;;;;;;8.55;2.83;;;19.90;76.70;;;;;;5106718;27;46318;-74
2023/07/23 03:40:26;;;;;;;4.38;2.53;;;19.90;75.70;;;;;;5106554;27;45566;-74
2023/07/23 03:42:53;;;;;;;5.25;3.35;;;19.90;75.70;;;;;;5109984;27;45254;-74
2023/07/23 03:45:20;;;;;;;3.85;2.58;;;20.00;75.20;;;;;;5107023;27;45390;-74
2023/07/23 03:47:47;;;;;;;4.82;2.70;;;20.00;75.00;;;;;;5106533;27;47522;-74
2023/07/23 03:50:14;;;;;;;5.47;2.72;;;20.00;75.40;;;;;;5106799;27;45259;-74
2023/07/23 03:52:40;;;;;;;7.60;2.80;;;20.00;73.50;;;;;;5103829;27;45240;-74
2023/07/23 03:55:08;;;;;;;5.15;2.60;;;20.10;73.60;;;;;;5107008;27;45231;-74
2023/07/23 03:57:36;;;;;;;9.85;2.53;;;20.10;73.10;;;;;;5105863;27;45447;-74
2023/07/23 04:00:03;;;;;;;6.28;2.80;;;20.10;72.30;;;;;;5106670;27;45095;-74
2023/07/23 04:02:30;;;;;;;4.53;2.75;;;20.10;73.30;;;;;;5106989;27;45137;-75
2023/07/23 04:04:57;;;;;;;4.97;2.60;;;20.20;72.90;;;;;;5106700;27;45049;-74
2023/07/23 04:07:23;;;;;;;3.92;2.70;;;20.20;73.10;;;;;;5106429;27;46254;-74
2023/07/23 04:09:50;;;;;;;3.08;2.20;;;20.20;72.80;;;;;;5106144;27;45110;-74
2023/07/23 04:12:17;;;;;;;5.13;2.25;;;20.20;72.70;;;;;;5106358;27;45108;-74
2023/07/23 04:14:45;;;;;;;5.40;2.17;;;20.20;72.70;;;;;;5104414;27;45667;-74
2023/07/23 04:17:12;;;;;;;2.80;2.10;;;20.20;72.60;;;;;;5100783;27;47625;-74
2023/07/23 04:19:39;;;;;;;4.65;2.60;;;20.30;71.80;;;;;;5105780;27;45887;-75
2023/07/23 04:22:06;;;;;;;4.13;2.15;;;20.20;71.20;;;;;;5106156;27;45288;-74
2023/07/23 04:24:32;;;;;;;7.13;2.40;;;20.30;72.90;;;;;;5107002;27;45128;-74
2023/07/23 04:26:59;;;;;;;3.80;2.30;;;20.30;71.90;;;;;;5106179;27;46544;-74
2023/07/23 04:29:26;;;;;;;5.15;2.22;;;20.30;70.70;;;;;;5115133;27;44990;-75
2023/07/23 04:31:55;;;;;;;5.88;2.08;;;20.30;70.60;;;;;;5109231;27;45052;-74
2023/07/23 04:34:21;;;;;;;5.82;2.50;;;20.30;70.80;;;;;;5107342;27;45238;-74
2023/07/23 04:36:51;;;;;;;5.45;2.20;;;20.30;70.80;;;;;;5103285;27;45173;-74
2023/07/23 04:39:18;;;;;;;3.92;2.28;;;20.30;69.60;;;;;;5092780;27;45112;-74
2023/07/23 04:41:45;;;;;;;3.33;1.83;;;20.30;70.40;;;;;;5105868;27;45158;-74
2023/07/23 04:44:12;;;;;;;10.60;2.30;;;20.40;69.50;;;;;;5106517;27;45405;-73
2023/07/23 04:46:38;;;;;;;6.22;2.08;;;20.40;70.60;;;;;;5105868;27;46436;-74
2023/07/23 04:49:07;;;;;;;3.28;1.80;;;20.40;69.10;;;;;;5105647;27;46013;-74
2023/07/23 04:51:33;;;;;;;4.55;1.83;;;20.40;68.90;;;;;;5104810;27;45058;-74
2023/07/23 04:54:00;;;;;;;2.72;1.80;;;20.40;68.50;;;;;;5105947;27;45187;-74
2023/07/23 04:56:28;;;;;;;4.72;1.60;;;20.50;69.00;;;;;;5105260;27;47437;-75
2023/07/23 04:58:55;;;;;;;3.42;1.33;;;20.40;69.10;;;;;;5097360;27;45231;-73
2023/07/23 05:01:22;;;;;;;4.85;1.60;;;20.50;68.40;;;;;;5105354;27;45259;-75
2023/07/23 05:03:49;;;;;;;4.00;1.73;;;20.50;68.70;;;;;;5106212;27;45101;-75
2023/07/23 05:06:17;;;;;;;4.35;1.65;;;20.50;68.20;;;;;;5105673;27;46085;-74
2023/07/23 05:08:44;;;;;;;3.33;1.70;;;20.50;68.90;;;;;;5105210;27;45553;-74
2023/07/23 05:11:10;;;;;;;5.40;1.73;;;20.50;68.10;;;;;;5105007;27;45177;-75
2023/07/23 05:13:37;;;;;;;6.00;1.75;;;20.50;68.80;;;;;;5104938;27;45451;-74
2023/07/23 05:16:04;;;;;;;6.10;1.90;;;20.50;68.20;;;;;;5100612;27;47185;-75
2023/07/23 05:18:32;;;;;;;4.97;1.90;;;20.50;68.90;;;;;;5093991;27;45107;-74
2023/07/23 05:20:58;;;;;;;4.45;1.65;;;20.50;69.00;;;;;;5105651;27;45085;-74
2023/07/23 05:23:27;;;;;;;4.57;1.77;;;20.50;68.60;;;;;;5109135;27;45343;-74
2023/07/23 05:25:56;;;;;;;5.70;1.85;;;20.50;69.20;;;;;;5105506;27;45179;-74
2023/07/23 05:28:22;;;;;;;3.20;1.63;;;20.50;68.10;;;;;;5105202;27;45103;-74
2023/07/23 05:30:49;;;;;;;4.88;1.50;;;20.50;68.90;;;;;;5100628;27;45120;-74
2023/07/23 05:33:16;;;;;;;4.28;1.75;;;20.50;69.10;;;;;;5105308;27;45101;-74
2023/07/23 05:35:43;;;;;;;2.75;1.58;;;20.60;69.00;;;;;;5105331;27;46185;-74
2023/07/23 05:38:09;;;;;;;5.65;1.80;;;20.50;70.20;;;;;;5105373;27;45150;-74
2023/07/23 05:40:38;;;;;;;5.22;1.70;;;20.60;68.90;;;;;;5104550;27;45159;-74
2023/07/23 05:43:12;;;;;;;2.10;1.38;;;20.60;69.50;;;;;;5105561;27;45257;-75
2023/07/23 05:45:39;;;;;;;3.05;1.73;;;20.60;69.70;;;;;;5104726;27;46452;-74
2023/07/23 05:48:06;;;;;;;5.85;1.58;;;20.60;68.50;;;;;;5100034;27;45088;-74
2023/07/23 05:50:33;;;;;;;2.33;1.58;;;20.60;68.30;;;;;;5102036;27;45599;-74
2023/07/23 05:53:00;;;;;;;5.68;1.60;;;20.60;68.90;;;;;;5105098;27;45405;-74
2023/07/23 05:55:27;;;;;;;5.80;1.63;;;20.60;68.50;;;;;;5104515;27;45211;-74
2023/07/23 05:57:55;;;;;;;7.43;1.70;;;20.60;67.70;;;;;;5087536;27;45140;-74
2023/07/23 06:00:22;;;;;;;4.60;1.50;;;20.60;68.60;;;;;;5104832;27;45196;-74
2023/07/23 06:02:49;;;;;;;3.90;1.55;;;20.70;68.60;;;;;;5105643;27;45267;-74
2023/07/23 06:05:15;;;;;;;4.88;1.73;;;20.70;69.40;;;;;;5108235;27;47000;-74
2023/07/23 06:07:42;;;;;;;3.33;1.70;;;20.70;68.90;;;;;;5108157;27;45316;-75
2023/07/23 06:10:09;;;;;;;2.90;1.73;;;20.70;68.40;;;;;;5108136;27;45248;-75
2023/07/23 06:12:36;;;;;;;6.40;1.92;;;20.70;68.30;;;;;;5110891;27;45299;-74
2023/07/23 06:15:05;;;;;;;7.60;1.98;;;20.70;68.70;;;;;;5104033;27;47566;-74
2023/07/23 06:17:32;;;;;;;4.43;1.83;;;20.70;68.20;;;;;;5105000;27;45166;-74
2023/07/23 06:30:29;;;;;;;6.25;2.05;;;22.80;69.10;;;;;;4897563;28;45289;-76
2023/07/23 06:32:55;;;;;;;5.18;1.75;;;20.70;68.30;;;;;;5037055;28;45221;-75
2023/07/23 06:35:22;;;;;;;6.22;2.05;;;20.70;67.70;;;;;;5090016;27;45268;-75
2023/07/23 06:37:49;;;;;;;3.00;1.80;;;20.70;68.20;;;;;;5108967;27;46355;-74
2023/07/23 06:40:16;;;;;;;4.80;2.22;;;20.70;68.70;;;;;;5109072;27;45011;-75
2023/07/23 06:42:43;;;;;;;5.00;1.90;;;20.70;67.90;;;;;;5108952;27;44959;-74
2023/07/23 06:45:11;;;;;;;3.47;1.75;;;20.70;67.60;;;;;;5108933;27;45379;-75
2023/07/23 06:47:39;;;;;;;3.22;1.80;;;20.70;68.60;;;;;;5108096;27;48378;-74
2023/07/23 06:50:07;;;;;;;4.10;2.17;;;20.70;68.30;;;;;;5108475;27;45088;-75
2023/07/23 06:52:34;;;;;;;2.90;1.65;;;20.70;68.30;;;;;;5108251;27;45077;-74
2023/07/23 06:55:00;;;;;;;7.35;2.20;;;20.70;68.00;;;;;;5108573;27;45275;-74
2023/07/23 06:57:27;;;;;;;3.25;1.65;;;20.70;68.90;;;;;;5107581;27;47190;-74
2023/07/23 06:59:54;;;;;;;4.88;2.03;;;20.70;69.10;;;;;;5107903;27;45124;-74
2023/07/23 07:02:21;;;;;;;2.38;1.80;;;20.80;68.50;;;;;;5108085;27;45034;-75
2023/07/23 07:04:51;;;;;;;5.32;1.85;;;20.80;70.10;;;;;;5111431;27;45024;-75
2023/07/23 07:07:18;;;;;;;4.85;2.10;;;20.70;70.00;;;;;;5107801;27;48221;-74
2023/07/23 07:09:45;;;;;;;2.38;1.83;;;20.70;68.40;;;;;;5107777;27;45711;-75
2023/07/23 07:12:11;;;;;;;5.53;1.65;;;20.70;67.70;;;;;;5107916;27;45267;-74
2023/07/23 07:14:38;;;;;;;6.15;1.88;;;20.70;68.50;;;;;;5107177;27;45329;-74
2023/07/23 07:17:05;;;;;;;4.90;1.85;;;20.80;68.60;;;;;;5107938;27;45340;-74
2023/07/23 07:19:32;;;;;;;4.43;1.88;;;20.90;68.10;;;;;;5099288;27;45217;-75
2023/07/23 07:35:27;;;;;;;2.22;1.38;;;20.90;68.50;;;;;;5006073;28;45179;-74
2023/07/23 07:47:44;;;;;;;2.00;1.40;;;20.90;71.20;;;;;;5095686;27;45537;-75
2023/07/23 07:50:11;;;;;;;2.38;1.35;;;20.80;72.60;;;;;;5108083;27;45379;-74
2023/07/23 07:52:39;;;;;;;5.00;2.17;;;20.70;75.40;;;;;;5107246;27;46653;-75
2023/07/23 07:55:07;;;;;;;6.18;1.73;;;20.60;79.80;;;;;;5110200;27;45235;-74
2023/07/23 07:57:35;;;;;;;4.07;1.67;;;20.50;79.60;;;;;;5106779;27;45301;-74
2023/07/23 08:00:05;;;;;;;8.27;1.83;;;20.30;79.50;;;;;;5102809;27;45147;-74
2023/07/23 08:02:33;;;;;;;6.80;1.67;;;20.30;79.60;;;;;;5100841;27;45399;-74
2023/07/23 08:05:00;;;;;;;4.22;1.38;;;20.30;80.00;;;;;;5089909;27;45038;-74
2023/07/23 08:07:27;;;;;;;4.03;1.30;;;20.30;80.80;;;;;;5106892;27;45153;-74
2023/07/23 08:09:59;;;;;;;4.20;1.63;;;20.30;83.10;;;;;;5106997;27;45169;-75
2023/07/23 08:12:26;;;;;;;6.65;1.80;;;20.40;83.60;;;;;;5106603;27;47335;-74
2023/07/23 08:25:02;;;;;;;5.35;1.90;;;20.30;87.60;;;;;;5024972;27;45280;-75
2023/07/23 08:37:39;;;;;;;4.03;1.63;;;20.10;91.30;;;;;;5045785;27;45639;-75
2023/07/23 08:40:09;;;;;;;3.33;1.40;;;20.00;91.20;;;;;;5094047;27;45131;-74
2023/07/23 08:42:58;;;;;;;2.45;1.63;;;19.90;91.30;;;;;;5086308;27;45102;-75
2023/07/23 08:58:53;;;;;;;3.30;1.63;;;20.30;89.80;;;;;;4980470;28;45199;-75
2023/07/23 09:01:20;;;;;;;4.88;1.70;;;20.20;90.50;;;;;;5078074;27;46470;-75
2023/07/23 09:03:48;;;;;;;3.33;1.45;;;20.20;90.70;;;;;;5116780;27;45203;-74
2023/07/23 09:06:17;;;;;;;2.03;1.50;;;20.20;90.40;;;;;;5125905;27;45100;-74
2023/07/23 09:08:44;;;;;;;3.42;1.58;;;20.30;90.40;;;;;;5108264;27;45268;-74
2023/07/23 09:11:11;;;;;;;3.50;1.67;;;20.20;91.50;;;;;;5105474;27;46847;-74
2023/07/23 09:13:38;;;;;;;4.65;1.80;;;20.30;92.50;;;;;;5105780;27;45577;-74
2023/07/23 09:16:06;;;;;;;3.55;1.45;;;20.30;92.60;;;;;;5118847;27;45061;-74
2023/07/23 09:18:39;;;;;;;2.88;1.60;;;20.30;92.20;;;;;;5109301;27;45139;-74
2023/07/23 09:21:06;;;;;;;3.88;1.50;;;20.30;92.60;;;;;;5084845;28;46968;-74
2023/07/23 09:23:34;;;;;;;2.08;1.50;;;20.30;92.40;;;;;;5107889;27;45196;-74
2023/07/23 09:26:01;;;;;;;2.20;1.50;;;20.30;92.90;;;;;;5088623;27;45122;-74
2023/07/23 09:28:28;;;;;;;2.33;1.55;;;20.30;92.90;;;;;;5104812;27;45100;-75
2023/07/23 09:30:55;;;;;;;2.83;1.60;;;20.30;92.30;;;;;;5123365;27;45429;-74
2023/07/23 09:33:30;;;;;;;1.50;1.40;;;20.30;92.50;;;;;;5119404;27;45242;-74
2023/07/23 09:35:59;;;;;;;3.97;1.70;;;20.40;92.20;;;;;;5116435;27;45150;-75
2023/07/23 09:38:28;;;;;;;4.68;1.50;;;20.40;92.00;;;;;;5107012;27;45030;-74
2023/07/23 09:40:55;;;;;;;3.13;1.50;;;20.40;91.30;;;;;;5108122;27;46227;-74
2023/07/23 09:43:23;;;;;;;1.45;1.25;;;20.40;91.50;;;;;;5114976;27;45164;-75
2023/07/23 09:45:50;;;;;;;2.45;1.40;;;20.40;90.70;;;;;;5110375;27;45322;-74
2023/07/23 09:48:18;;;;;;;1.98;1.30;;;20.50;90.90;;;;;;5108422;27;45094;-74
2023/07/23 09:50:46;;;;;;;3.25;1.38;;;20.50;90.80;;;;;;5116093;27;46069;-74
2023/07/23 09:53:15;;;;;;;1.95;1.13;;;20.40;90.50;;;;;;5121702;27;45223;-75
2023/07/23 09:55:43;;;;;;;1.73;1.27;;;20.50;90.70;;;;;;5119008;27;45334;-74
2023/07/23 09:58:11;;;;;;;3.72;1.40;;;20.50;90.70;;;;;;5108167;27;45047;-74
2023/07/23 10:00:38;;;;;;;2.63;1.30;;;20.50;90.30;;;;;;5116421;27;47891;-74
2023/07/23 10:03:05;;;;;;;2.83;1.10;;;20.50;90.40;;;;;;5124649;27;45199;-75
2023/07/23 10:05:34;;;;;;;3.88;1.00;;;20.50;90.30;;;;;;5108752;27;45179;-73
2023/07/23 10:08:04;;;;;;;3.30;1.33;;;20.60;90.50;;;;;;5108015;27;45346;-74
2023/07/23 10:10:31;;;;;;;4.00;1.30;;;20.60;90.40;;;;;;5108125;27;45402;-74
2023/07/23 10:12:58;;;;;;;2.53;1.15;;;20.60;90.40;;;;;;5111386;27;45215;-74
2023/07/23 10:15:25;;;;;;;3.33;1.00;;;20.70;90.60;;;;;;5111508;27;45224;-74
2023/07/23 10:17:58;;;;;;;4.13;1.38;;;20.70;90.50;;;;;;5110586;27;45363;-74
2023/07/23 10:20:28;;;;;;;1.30;1.17;;;20.80;90.30;;;;;;5113125;27;45425;-74
2023/07/23 10:22:55;;;;;;;1.90;1.00;;;20.80;90.10;;;;;;5119559;27;45147;-74
2023/07/23 10:25:25;;;;;;;4.95;1.30;;;20.80;90.00;;;;;;5125268;27;45125;-74
2023/07/23 10:27:58;;;;;;;2.08;1.15;;;20.80;89.40;;;;;;5116749;27;45233;-74
2023/07/23 10:30:26;;;;;;;3.83;1.42;;;20.80;90.00;;;;;;5107354;27;46667;-74
2023/07/23 10:33:22;;;;;;;1.52;1.00;;;20.80;89.80;;;;;;5107722;27;45113;-74
2023/07/23 10:36:02;;;;;;;1.23;1.02;;;20.80;90.00;;;;;;5124027;27;45125;-74
2023/07/23 10:38:30;;;;;;;3.95;1.10;;;20.80;90.10;;;;;;5116681;27;45038;-74
2023/07/23 10:40:59;;;;;;;1.35;1.02;;;20.90;90.80;;;;;;5118374;27;46218;-74
2023/07/23 10:43:38;;;;;;;2.45;1.23;;;20.80;90.60;;;;;;5127908;27;45158;-74
2023/07/23 10:46:06;;;;;;;1.88;0.93;;;20.80;90.20;;;;;;5099491;27;45118;-74
2023/07/23 10:48:46;;;;;;;6.68;1.38;;;20.80;90.30;;;;;;5107618;27;45262;-75
2023/07/23 10:51:15;;;;;;;2.58;1.10;;;20.70;90.20;;;;;;5108028;27;45454;-74
2023/07/23 10:53:43;;;;;;;3.97;1.17;;;20.80;90.20;;;;;;5124411;27;45116;-74
2023/07/23 10:56:26;;;;;;;3.05;1.20;;;20.80;89.90;;;;;;5107256;27;45113;-74
2023/07/23 10:58:58;;;;;;;3.88;0.98;;;20.90;90.00;;;;;;5106697;27;45466;-75
2023/07/23 11:01:27;;;;;;;4.63;1.20;;;20.90;89.90;;;;;;5107239;27;47434;-74
2023/07/23 11:03:57;;;;;;;5.97;1.20;;;20.90;89.60;;;;;;5109775;27;45117;-74
2023/07/23 11:06:28;;;;;;;7.97;1.15;;;21.00;89.30;;;;;;5119421;27;45297;-75
2023/07/23 11:08:58;;;;;;;2.25;0.77;;;21.00;89.20;;;;;;5127648;27;45106;-74
2023/07/23 11:11:40;;;;;;;1.77;1.00;;;21.10;88.90;;;;;;5120789;27;48251;-74
2023/07/23 11:14:20;;;;;;;5.55;1.10;;;21.00;88.70;;;;;;5108522;27;45220;-74
2023/07/23 11:16:48;;;;;;;5.72;0.98;;;21.00;89.20;;;;;;5130684;27;45173;-74
2023/07/23 11:19:17;;;;;;;1.13;0.85;;;21.00;88.80;;;;;;5122134;27;45193;-74
2023/07/23 11:21:46;;;;;;;5.97;0.80;;;21.00;88.90;;;;;;5106386;27;46642;-74
2023/07/23 11:24:13;;;;;;;5.45;1.10;;;21.00;88.60;;;;;;5106916;27;45851;-74
2023/07/23 11:26:41;;;;;;;3.92;1.00;;;21.00;88.90;;;;;;5115495;27;45274;-74
2023/07/23 11:29:09;;;;;;;2.78;1.00;;;21.00;89.10;;;;;;5114624;27;45164;-74
2023/07/23 11:31:36;;;;;;;1.15;0.80;;;21.00;89.40;;;;;;5106739;27;45068;-74
2023/07/23 11:34:05;;;;;;;5.82;1.20;;;21.10;89.80;;;;;;5098522;27;45258;-74
2023/07/23 11:36:32;;;;;;;3.08;0.90;;;21.10;89.50;;;;;;5106389;27;45324;-74
2023/07/23 11:38:59;;;;;;;1.52;1.00;;;21.10;89.80;;;;;;5113092;27;45191;-74
2023/07/23 11:41:30;;;;;;;2.35;1.00;;;21.10;89.90;;;;;;5112110;27;47270;-74
2023/07/23 11:44:00;;;;;;;4.25;1.00;;;21.10;89.80;;;;;;5115073;27;45058;-74
2023/07/23 11:46:27;;;;;;;4.27;1.10;;;21.10;90.00;;;;;;5105417;27;45362;-74
2023/07/23 11:48:55;;;;;;;3.63;1.30;;;21.20;89.90;;;;;;5114548;27;45214;-75
2023/07/23 11:51:22;;;;;;;3.13;1.00;;;21.10;89.90;;;;;;5105664;27;46806;-74
2023/07/23 11:53:51;;;;;;;2.90;1.10;;;21.10;89.90;;;;;;5126074;27;45185;-74
2023/07/23 11:56:22;;;;;;;1.08;0.75;;;21.10;90.00;;;;;;5112443;27;45219;-74
2023/07/23 11:58:49;;;;;;;5.18;1.17;;;21.10;90.10;;;;;;5113556;27;45281;-74
2023/07/23 12:01:18;;;;;;;1.60;0.68;;;21.10;90.20;;;;;;5105684;27;46620;-75
2023/07/23 12:03:46;;;;;;;4.43;1.35;;;21.10;90.20;;;;;;5105848;27;45850;-75
2023/07/23 12:06:14;;;;;;;3.53;0.93;;;21.10;90.00;;;;;;5109152;27;45069;-74
2023/07/23 12:08:43;;;;;;;4.82;1.33;;;21.10;90.10;;;;;;5106175;27;45280;-74
2023/07/23 12:11:11;;;;;;;6.90;1.27;;;21.10;90.10;;;;;;5106005;27;45260;-74
2023/07/23 12:13:45;;;;;;;5.93;0.90;;;21.10;90.30;;;;;;5114178;27;45955;-74
2023/07/23 12:16:32;;;;;;;6.78;1.10;;;21.10;90.50;;;;;;5119919;27;45262;-74
2023/07/23 12:19:02;;;;;;;3.97;1.00;;;21.10;90.20;;;;;;5117731;27;45429;-74
2023/07/23 12:21:29;;;;;;;11.48;1.10;;;21.10;90.30;;;;;;5119020;27;46524;-74
2023/07/23 12:23:55;;;;;;;2.47;1.00;;;21.20;90.30;;;;;;5116199;27;45313;-74
2023/07/23 12:26:22;;;;;;;1.52;0.80;;;21.20;90.30;;;;;;5120384;27;45393;-74
2023/07/23 12:28:49;;;;;;;1.83;0.80;;;21.20;90.20;;;;;;5106504;27;45390;-74
2023/07/23 12:31:17;;;;;;;2.03;0.88;;;21.20;90.30;;;;;;5113605;27;46570;-74
2023/07/23 12:33:44;;;;;;;5.85;1.10;;;21.20;90.20;;;;;;5122294;27;45329;-74
2023/07/23 12:36:11;;;;;;;6.68;1.20;;;21.20;90.20;;;;;;5114230;27;45166;-74
2023/07/23 12:38:37;;;;;;;8.13;1.20;;;21.20;90.40;;;;;;5106147;27;45158;-73
2023/07/23 12:41:05;;;;;;;2.03;0.88;;;21.20;90.20;;;;;;5109341;27;47470;-75
2023/07/23 12:43:32;;;;;;;5.47;0.73;;;21.20;90.40;;;;;;5109952;27;45066;-74
2023/07/23 12:45:59;;;;;;;2.22;0.80;;;21.30;90.40;;;;;;5113590;27;45276;-74
2023/07/23 12:48:28;;;;;;;5.38;0.80;;;21.30;90.60;;;;;;5112417;27;45271;-74
2023/07/23 12:50:54;;;;;;;2.75;0.85;;;21.30;90.50;;;;;;5115204;27;46938;-74
2023/07/23 12:53:21;;;;;;;5.10;1.00;;;21.30;90.20;;;;;;5105148;27;45243;-74
2023/07/23 12:55:48;;;;;;;1.75;0.70;;;21.30;90.50;;;;;;5105449;27;45141;-74
2023/07/23 12:58:15;;;;;;;2.30;0.80;;;21.40;90.60;;;;;;5108064;27;45394;-74
2023/07/23 13:00:41;;;;;;;2.28;0.90;;;21.40;90.50;;;;;;5104869;27;47169;-74
2023/07/23 13:03:08;;;;;;;1.58;0.93;;;21.50;90.70;;;;;;5105581;27;45096;-74
2023/07/23 13:05:36;;;;;;;1.20;0.85;;;21.40;90.70;;;;;;5113678;27;45245;-75
2023/07/23 13:08:03;;;;;;;1.95;0.90;;;21.50;90.70;;;;;;5117152;27;45126;-74
2023/07/23 13:10:30;;;;;;;4.63;1.00;;;21.60;90.20;;;;;;5109471;27;47892;-75
2023/07/23 13:12:57;;;;;;;1.45;1.00;;;21.60;90.80;;;;;;5112038;27;45074;-74
2023/07/23 13:15:23;;;;;;;0.90;0.75;;;21.70;90.70;;;;;;5116140;27;45151;-74
2023/07/23 13:17:50;;;;;;;0.98;0.80;;;21.70;90.30;;;;;;5105547;27;45354;-74
2023/07/23 13:20:17;;;;;;;1.45;0.90;;;21.80;90.20;;;;;;5104717;27;47268;-74
2023/07/23 13:22:45;;;;;;;1.83;0.75;;;21.80;90.10;;;;;;5113258;27;45205;-74
2023/07/23 13:25:12;;;;;;;2.58;1.00;;;21.80;90.20;;;;;;5113205;27;45339;-74
2023/07/23 13:27:39;;;;;;;1.23;0.90;;;21.80;89.90;;;;;;5105026;27;45215;-74
2023/07/23 13:30:07;;;;;;;1.60;0.90;;;21.80;89.60;;;;;;5108237;27;46746;-74
2023/07/23 13:32:34;;;;;;;1.98;1.20;;;21.80;89.50;;;;;;5117036;27;45226;-74
2023/07/23 13:35:00;;;;;;;1.80;1.10;;;21.80;90.00;;;;;;5105434;27;45121;-74
2023/07/23 13:37:27;;;;;;;4.90;1.30;;;21.80;90.10;;;;;;5120399;27;45085;-74
2023/07/23 13:39:55;;;;;;;2.63;0.90;;;21.80;90.00;;;;;;5105671;27;45239;-74
2023/07/23 13:42:22;;;;;;;4.85;1.23;;;21.80;90.20;;;;;;5104867;27;45079;-75
2023/07/23 13:44:49;;;;;;;3.92;1.30;;;21.80;89.40;;;;;;5104887;27;45189;-75
2023/07/23 13:47:16;;;;;;;4.03;1.15;;;21.80;89.80;;;;;;5121817;27;45414;-74
2023/07/23 13:49:42;;;;;;;2.80;1.20;;;21.90;89.90;;;;;;5116590;27;47462;-74
2023/07/23 13:52:09;;;;;;;3.83;1.50;;;21.90;89.60;;;;;;5113027;27;45169;-74
2023/07/23 13:54:36;;;;;;;3.67;1.70;;;21.80;90.00;;;;;;5105154;27;45133;-73
2023/07/23 13:57:06;;;;;;;3.50;1.20;;;21.80;90.20;;;;;;5113238;27;45272;-74